Time;durP1;ratioP1;P1;durP2;ratioP2;P2;SDS_P1;SDS_P2;PMS_P1;PMS_P2;Temp;Humidity;BMP_temperature;BMP_pressure;BME280_temperature;BME280_humidity;BME280_pressure;Samples;Min_cycle;Max_cycle;Signal;HPM_P1;HPM_P2
2023/11/30 00:01:19;;;;;;;2.33;1.10;;;20.00;55.00;;;;;;5035795;28;20071;-72
2023/11/30 00:03:45;;;;;;;1.77;1.13;;;20.00;55.00;;;;;;5020201;28;20052;-71
2023/11/30 00:06:10;;;;;;;2.33;1.13;;;20.00;55.00;;;;;;5032892;28;20113;-71
2023/11/30 00:08:36;;;;;;;1.33;0.90;;;20.00;55.50;;;;;;5019810;28;20047;-71
2023/11/30 00:11:05;;;;;;;1.80;1.00;;;20.00;55.10;;;;;;5036900;28;20477;-71
2023/11/30 00:13:31;;;;;;;2.17;1.00;;;19.90;55.00;;;;;;5035360;28;20463;-71
2023/11/30 00:15:56;;;;;;;2.33;1.33;;;19.90;55.00;;;;;;5035148;28;20034;-72
2023/11/30 00:18:22;;;;;;;1.80;1.00;;;19.90;55.00;;;;;;5037251;28;20501;-71
2023/11/30 00:20:48;;;;;;;2.28;1.10;;;19.90;55.00;;;;;;5036108;28;20036;-63
2023/11/30 00:23:13;;;;;;;1.38;1.00;;;19.90;55.00;;;;;;5038566;28;20107;-66
2023/11/30 00:25:39;;;;;;;1.88;1.00;;;19.90;55.00;;;;;;5017599;28;20503;-66
2023/11/30 00:28:04;;;;;;;2.25;1.20;;;19.90;55.10;;;;;;5036731;28;20044;-63
2023/11/30 00:30:30;;;;;;;2.17;1.00;;;19.90;55.10;;;;;;5019650;28;20587;-72
2023/11/30 00:32:55;;;;;;;1.90;1.00;;;19.90;55.10;;;;;;5035659;28;20030;-72
2023/11/30 00:35:21;;;;;;;2.00;1.20;;;19.90;55.10;;;;;;5023389;28;20033;-71
2023/11/30 00:37:47;;;;;;;1.90;1.10;;;19.90;55.10;;;;;;5023915;28;20021;-72
2023/11/30 00:40:12;;;;;;;1.80;1.00;;;19.90;55.10;;;;;;5023612;28;20021;-71
2023/11/30 00:42:38;;;;;;;1.92;1.00;;;19.80;55.60;;;;;;5043157;28;20029;-72
2023/11/30 00:45:04;;;;;;;2.30;1.00;;;19.80;55.00;;;;;;5042088;28;20025;-72
2023/11/30 00:47:30;;;;;;;1.55;1.08;;;19.80;55.10;;;;;;5045674;28;20037;-71
2023/11/30 00:49:55;;;;;;;1.98;1.10;;;19.80;55.10;;;;;;5041162;27;20400;-73
2023/11/30 00:52:21;;;;;;;1.52;0.98;;;19.80;55.10;;;;;;5042427;27;20029;-72
2023/11/30 00:54:46;;;;;;;2.60;1.17;;;19.80;55.10;;;;;;5042219;27;20552;-71
2023/11/30 00:57:12;;;;;;;1.92;1.10;;;19.80;55.10;;;;;;5040919;28;20021;-72
2023/11/30 00:59:37;;;;;;;2.42;1.33;;;19.80;55.10;;;;;;5041274;28;20033;-65
2023/11/30 01:02:03;;;;;;;1.90;1.00;;;19.80;55.10;;;;;;5039699;27;20082;-63
2023/11/30 01:04:29;;;;;;;1.65;0.93;;;19.80;55.10;;;;;;5042016;28;20029;-64
2023/11/30 01:06:54;;;;;;;1.80;1.10;;;19.70;55.10;;;;;;5041668;27;20065;-64
2023/11/30 01:09:20;;;;;;;1.33;0.90;;;19.70;55.10;;;;;;5026629;28;20582;-64
2023/11/30 01:11:45;;;;;;;1.77;1.20;;;19.70;55.10;;;;;;5023351;28;20025;-64
2023/11/30 01:14:11;;;;;;;1.75;1.10;;;19.70;55.00;;;;;;5021866;28;20044;-65
2023/11/30 01:16:37;;;;;;;2.17;1.20;;;19.80;55.10;;;;;;5042249;28;20021;-64
2023/11/30 01:19:03;;;;;;;1.83;1.10;;;19.70;55.10;;;;;;5032184;28;20519;-63
2023/11/30 01:21:28;;;;;;;2.20;1.00;;;19.70;55.10;;;;;;5039143;28;20137;-63
2023/11/30 01:23:54;;;;;;;1.67;1.00;;;19.70;55.10;;;;;;5041870;28;20077;-63
2023/11/30 01:26:19;;;;;;;2.00;1.20;;;19.70;55.10;;;;;;5041764;28;20113;-65
2023/11/30 01:28:45;;;;;;;2.42;1.00;;;19.70;55.10;;;;;;5043761;27;20103;-64
2023/11/30 01:31:10;;;;;;;1.98;1.10;;;19.70;55.10;;;;;;5042015;27;20469;-72
2023/11/30 01:33:36;;;;;;;1.50;1.00;;;19.70;55.10;;;;;;5042713;27;20056;-72
2023/11/30 01:36:03;;;;;;;2.03;1.15;;;19.70;55.10;;;;;;5041762;27;20376;-72
2023/11/30 01:38:30;;;;;;;1.50;1.08;;;19.60;55.00;;;;;;5042072;28;20538;-72
2023/11/30 01:40:56;;;;;;;1.67;0.98;;;19.60;55.00;;;;;;5041340;28;20090;-71
2023/11/30 01:43:22;;;;;;;2.53;1.30;;;19.70;55.10;;;;;;5041624;28;20040;-71
2023/11/30 01:45:49;;;;;;;2.20;1.10;;;19.60;55.10;;;;;;5038528;28;20097;-72
2023/11/30 01:48:16;;;;;;;1.67;1.00;;;19.60;55.10;;;;;;5038830;28;20560;-72
2023/11/30 01:50:43;;;;;;;1.60;1.00;;;19.60;55.10;;;;;;5036930;28;20041;-72
2023/11/30 01:53:09;;;;;;;1.40;0.90;;;19.60;55.10;;;;;;5039163;28;20438;-72
2023/11/30 01:55:36;;;;;;;2.22;0.90;;;19.60;55.10;;;;;;5038039;28;20057;-72
2023/11/30 01:58:03;;;;;;;1.73;1.05;;;19.60;55.10;;;;;;5037728;28;20496;-73
2023/11/30 02:00:30;;;;;;;1.60;0.95;;;19.50;55.10;;;;;;5036195;28;20389;-72
2023/11/30 02:02:58;;;;;;;1.63;1.00;;;19.60;55.10;;;;;;5020419;28;20036;-72
2023/11/30 02:05:24;;;;;;;1.80;1.10;;;19.50;55.10;;;;;;5020543;28;20080;-72
2023/11/30 02:07:50;;;;;;;2.03;1.10;;;19.50;55.10;;;;;;5037668;28;20548;-72
2023/11/30 02:10:15;;;;;;;1.55;0.90;;;19.50;55.10;;;;;;5037675;28;20120;-73
2023/11/30 02:12:41;;;;;;;1.85;1.30;;;19.50;55.10;;;;;;5038697;28;20434;-72
2023/11/30 02:15:07;;;;;;;2.15;1.10;;;19.50;55.10;;;;;;5037968;28;20033;-72
2023/11/30 02:17:33;;;;;;;1.63;1.00;;;19.50;55.10;;;;;;5039641;28;20527;-72
2023/11/30 02:19:58;;;;;;;2.47;1.02;;;19.50;55.20;;;;;;5036871;28;20112;-72
2023/11/30 02:22:24;;;;;;;1.75;1.00;;;19.50;55.20;;;;;;5036950;28;20124;-71
2023/11/30 02:24:50;;;;;;;1.30;0.93;;;19.50;55.20;;;;;;5022601;28;20048;-72
2023/11/30 02:27:15;;;;;;;2.20;1.10;;;19.50;55.20;;;;;;5038784;28;20052;-71
2023/11/30 02:29:41;;;;;;;1.55;1.10;;;19.50;55.20;;;;;;5020798;28;20025;-71
2023/11/30 02:32:06;;;;;;;1.13;0.90;;;19.40;55.20;;;;;;5038241;28;20034;-72
2023/11/30 02:34:32;;;;;;;2.08;1.20;;;19.40;55.20;;;;;;5040080;28;20025;-71
2023/11/30 02:36:58;;;;;;;1.70;1.00;;;19.40;55.20;;;;;;5019812;28;20029;-72
2023/11/30 02:39:24;;;;;;;1.50;0.88;;;19.40;55.20;;;;;;5038723;28;20059;-71
2023/11/30 02:41:50;;;;;;;2.13;1.00;;;19.40;55.20;;;;;;5039205;28;20414;-65
2023/11/30 02:44:16;;;;;;;2.13;1.10;;;19.40;55.20;;;;;;5038081;28;20056;-65
2023/11/30 02:46:41;;;;;;;1.35;0.88;;;19.40;55.20;;;;;;5036578;28;20068;-65
2023/11/30 02:49:07;;;;;;;1.85;1.00;;;19.40;55.30;;;;;;5037532;28;20492;-65
2023/11/30 02:51:32;;;;;;;1.23;0.88;;;19.40;55.20;;;;;;5036677;28;20067;-63
2023/11/30 02:53:58;;;;;;;1.75;1.02;;;19.40;55.80;;;;;;5037577;28;20151;-64
2023/11/30 02:56:24;;;;;;;1.75;1.10;;;19.40;55.20;;;;;;5020172;28;20022;-63
2023/11/30 02:58:49;;;;;;;1.83;1.00;;;19.40;55.30;;;;;;5018235;28;20033;-64
2023/11/30 03:01:15;;;;;;;2.45;1.10;;;19.40;55.30;;;;;;5037576;28;20021;-63
2023/11/30 03:03:40;;;;;;;1.83;1.00;;;19.40;55.30;;;;;;5021509;28;20377;-63
2023/11/30 03:06:11;;;;;;;1.65;0.90;;;19.40;55.30;;;;;;5035491;28;20119;-64
2023/11/30 03:08:36;;;;;;;2.15;1.10;;;19.30;55.20;;;;;;5037429;28;20025;-65
2023/11/30 03:11:02;;;;;;;1.48;0.90;;;19.30;55.20;;;;;;5038528;28;20029;-64
2023/11/30 03:13:28;;;;;;;1.52;0.95;;;19.30;55.30;;;;;;5036393;28;20030;-67
2023/11/30 03:15:53;;;;;;;1.27;0.80;;;19.30;55.30;;;;;;5035001;28;20022;-63
2023/11/30 03:18:19;;;;;;;1.33;0.93;;;19.30;55.30;;;;;;5036650;28;20029;-64
2023/11/30 03:20:45;;;;;;;1.50;1.00;;;19.30;55.30;;;;;;5036160;28;20437;-63
2023/11/30 03:23:10;;;;;;;1.40;0.90;;;19.30;55.30;;;;;;5035951;28;20029;-65
2023/11/30 03:25:36;;;;;;;1.38;0.95;;;19.30;55.30;;;;;;5020587;28;20393;-65
2023/11/30 03:28:02;;;;;;;1.60;0.95;;;19.30;55.30;;;;;;5038501;28;20074;-65
2023/11/30 03:30:28;;;;;;;1.75;0.90;;;19.30;55.30;;;;;;5035353;28;20024;-64
2023/11/30 03:32:55;;;;;;;1.08;0.85;;;19.30;55.40;;;;;;5021446;28;20025;-64
2023/11/30 03:35:21;;;;;;;1.15;0.77;;;19.20;55.30;;;;;;5017941;28;20481;-63
2023/11/30 03:37:47;;;;;;;1.60;0.90;;;19.30;55.40;;;;;;5034585;28;20032;-64
2023/11/30 03:40:13;;;;;;;1.13;0.90;;;19.20;55.40;;;;;;5035145;28;20044;-64
2023/11/30 03:42:38;;;;;;;1.52;1.00;;;19.20;55.40;;;;;;5019568;28;20025;-64
2023/11/30 03:45:05;;;;;;;1.35;0.98;;;19.20;55.40;;;;;;5039885;28;20028;-64
2023/11/30 03:47:30;;;;;;;1.00;0.80;;;19.20;55.40;;;;;;5035980;28;20036;-63
2023/11/30 03:49:56;;;;;;;1.35;0.95;;;19.20;55.40;;;;;;5036902;28;20041;-69
2023/11/30 03:52:21;;;;;;;1.05;0.90;;;19.20;55.40;;;;;;5036747;28;20051;-69
2023/11/30 03:54:47;;;;;;;1.20;0.80;;;19.20;55.50;;;;;;5017612;28;20049;-69
2023/11/30 03:57:13;;;;;;;1.30;0.80;;;19.20;55.50;;;;;;5035830;28;20036;-69
2023/11/30 03:59:39;;;;;;;1.48;0.90;;;19.20;55.60;;;;;;5034851;28;20553;-69
2023/11/30 04:02:05;;;;;;;1.17;0.73;;;19.10;55.50;;;;;;5034243;28;20115;-73
2023/11/30 04:04:31;;;;;;;1.52;0.90;;;19.20;55.60;;;;;;5035249;28;20155;-73
2023/11/30 04:06:56;;;;;;;2.03;1.05;;;19.10;55.60;;;;;;5033247;28;20036;-73
2023/11/30 04:09:22;;;;;;;1.42;0.90;;;19.10;55.60;;;;;;5037068;28;20033;-72
2023/11/30 04:11:48;;;;;;;1.70;0.80;;;19.10;55.70;;;;;;5036451;28;20163;-73
2023/11/30 04:14:13;;;;;;;0.90;0.70;;;19.10;55.70;;;;;;5035802;28;20078;-72
2023/11/30 04:16:39;;;;;;;1.02;0.70;;;19.10;55.70;;;;;;5019060;28;20021;-73
2023/11/30 04:19:04;;;;;;;1.00;0.80;;;19.10;55.70;;;;;;5036523;28;20021;-72
2023/11/30 04:21:30;;;;;;;1.33;0.80;;;19.10;55.80;;;;;;5034548;28;20029;-72
2023/11/30 04:23:56;;;;;;;1.42;0.90;;;19.00;55.70;;;;;;5016911;28;20032;-71
2023/11/30 04:26:22;;;;;;;1.00;0.70;;;19.10;55.80;;;;;;5034609;28;20036;-72
2023/11/30 04:28:47;;;;;;;1.30;0.88;;;19.00;55.80;;;;;;5036951;28;20034;-73
2023/11/30 04:31:13;;;;;;;1.00;0.80;;;19.00;55.80;;;;;;5036340;28;20044;-69
2023/11/30 04:33:39;;;;;;;1.48;0.90;;;19.00;55.90;;;;;;5034285;28;20025;-69
2023/11/30 04:36:05;;;;;;;1.35;0.80;;;19.00;55.90;;;;;;5035015;28;20026;-69
2023/11/30 04:38:31;;;;;;;1.52;0.90;;;19.00;56.00;;;;;;5034076;28;20026;-69
2023/11/30 04:40:56;;;;;;;1.30;0.90;;;19.00;56.00;;;;;;5033872;28;20483;-69
2023/11/30 04:43:22;;;;;;;0.95;0.70;;;19.00;56.00;;;;;;5034191;28;20033;-69
2023/11/30 04:45:51;;;;;;;1.35;0.90;;;19.00;56.00;;;;;;5034310;28;20337;-69
2023/11/30 04:48:17;;;;;;;1.60;1.00;;;18.90;55.90;;;;;;5036805;28;20061;-68
2023/11/30 04:50:42;;;;;;;1.38;0.90;;;18.90;56.50;;;;;;5034884;28;20304;-69
2023/11/30 04:53:08;;;;;;;1.45;0.90;;;18.90;56.00;;;;;;5017374;28;20036;-68
2023/11/30 04:55:33;;;;;;;1.85;0.80;;;18.90;56.00;;;;;;5034588;28;20434;-69
2023/11/30 04:57:59;;;;;;;1.02;0.80;;;19.00;56.10;;;;;;5035803;28;20018;-68
2023/11/30 05:00:24;;;;;;;1.35;0.90;;;18.90;56.00;;;;;;5035257;28;20032;-69
2023/11/30 05:02:52;;;;;;;0.90;0.70;;;19.00;56.10;;;;;;5035081;28;20073;-68
2023/11/30 05:05:21;;;;;;;1.42;0.90;;;18.90;56.00;;;;;;5037717;28;20469;-68
2023/11/30 05:07:47;;;;;;;1.73;0.90;;;18.90;56.10;;;;;;5034537;28;20029;-69
2023/11/30 05:10:13;;;;;;;1.10;0.80;;;18.90;56.10;;;;;;5037541;28;20740;-68
2023/11/30 05:12:39;;;;;;;1.55;0.80;;;18.90;56.10;;;;;;5036081;28;20037;-68
2023/11/30 05:15:05;;;;;;;0.93;0.80;;;18.90;56.10;;;;;;5019111;28;20048;-69
2023/11/30 05:17:32;;;;;;;1.27;0.90;;;18.90;56.10;;;;;;5018285;28;20088;-68
2023/11/30 05:19:57;;;;;;;1.33;0.90;;;18.90;56.10;;;;;;5033465;28;20801;-68
2023/11/30 05:22:23;;;;;;;1.15;0.80;;;18.90;56.10;;;;;;5034911;28;20065;-67
2023/11/30 05:24:51;;;;;;;1.20;0.80;;;18.90;56.40;;;;;;5028762;28;20025;-69
2023/11/30 05:27:17;;;;;;;1.20;0.80;;;18.90;56.10;;;;;;5038675;28;20082;-68
2023/11/30 05:29:42;;;;;;;1.48;0.90;;;18.90;56.20;;;;;;5037781;28;20041;-69
2023/11/30 05:32:08;;;;;;;1.33;0.82;;;18.90;56.10;;;;;;5038962;28;20033;-69
2023/11/30 05:34:35;;;;;;;1.52;0.98;;;18.90;56.20;;;;;;5038125;28;20029;-69
2023/11/30 05:37:03;;;;;;;1.50;1.00;;;18.90;56.20;;;;;;5037372;28;20121;-69
2023/11/30 05:39:30;;;;;;;1.17;0.77;;;18.90;56.40;;;;;;5037301;28;20037;-70
2023/11/30 05:41:55;;;;;;;1.13;0.80;;;18.90;56.20;;;;;;5037576;28;20017;-73
2023/11/30 05:44:21;;;;;;;1.02;0.70;;;18.90;56.20;;;;;;5019580;28;20074;-74
2023/11/30 05:46:48;;;;;;;1.33;0.80;;;18.90;56.30;;;;;;5035986;28;20026;-73
2023/11/30 05:49:13;;;;;;;1.77;0.90;;;18.90;56.30;;;;;;5038713;28;20036;-72
2023/11/30 05:51:40;;;;;;;1.13;0.77;;;18.90;56.30;;;;;;5035532;28;20025;-72
2023/11/30 05:54:06;;;;;;;1.52;0.82;;;18.90;56.30;;;;;;5020422;28;20148;-72
2023/11/30 05:56:31;;;;;;;1.83;0.90;;;18.90;56.30;;;;;;5038639;28;20124;-72
2023/11/30 05:58:57;;;;;;;1.15;0.90;;;18.90;56.30;;;;;;5036161;28;20377;-72
2023/11/30 06:01:23;;;;;;;0.93;0.80;;;18.90;56.90;;;;;;5020859;28;20025;-72
2023/11/30 06:03:49;;;;;;;1.90;0.90;;;18.90;56.30;;;;;;5019996;28;20025;-72
2023/11/30 06:06:14;;;;;;;1.13;0.80;;;18.90;56.40;;;;;;5037678;28;20529;-72
2023/11/30 06:08:40;;;;;;;1.10;0.80;;;18.90;56.40;;;;;;5019614;28;20057;-72
2023/11/30 06:11:06;;;;;;;0.98;0.75;;;18.90;56.40;;;;;;5018424;28;20031;-64
2023/11/30 06:13:32;;;;;;;1.35;0.80;;;18.90;56.40;;;;;;5036632;28;20143;-64
2023/11/30 06:15:57;;;;;;;2.20;0.90;;;18.90;56.50;;;;;;5034339;28;20026;-65
2023/11/30 06:18:23;;;;;;;1.55;0.80;;;18.80;56.40;;;;;;5020424;28;20059;-64
2023/11/30 06:20:49;;;;;;;1.48;0.90;;;18.90;56.50;;;;;;5038777;28;20057;-68
2023/11/30 06:23:15;;;;;;;1.77;1.00;;;18.90;56.70;;;;;;5033007;28;20056;-68
2023/11/30 06:25:42;;;;;;;1.20;0.80;;;18.90;56.50;;;;;;5039681;28;20116;-68
2023/11/30 06:28:08;;;;;;;1.25;0.77;;;18.90;56.50;;;;;;5039793;28;20058;-68
2023/11/30 06:30:34;;;;;;;1.65;0.90;;;18.80;56.50;;;;;;5038756;28;20051;-69
2023/11/30 06:33:00;;;;;;;1.50;0.90;;;18.80;56.50;;;;;;5036910;28;20117;-69
2023/11/30 06:35:25;;;;;;;1.33;0.80;;;18.80;56.50;;;;;;5037148;28;20079;-69
2023/11/30 06:37:51;;;;;;;1.55;0.95;;;18.90;56.60;;;;;;5037010;28;20066;-69
2023/11/30 06:40:17;;;;;;;1.50;0.82;;;18.90;56.60;;;;;;5021274;28;20017;-69
2023/11/30 06:42:43;;;;;;;1.30;0.85;;;18.80;56.60;;;;;;5021026;28;20445;-68
2023/11/30 06:45:09;;;;;;;1.50;0.90;;;18.80;56.60;;;;;;5037452;28;20025;-68
2023/11/30 06:47:34;;;;;;;1.50;1.05;;;18.80;56.60;;;;;;5036220;28;20033;-68
2023/11/30 06:50:00;;;;;;;2.03;1.13;;;18.80;56.60;;;;;;5039035;28;20058;-68
2023/11/30 06:52:25;;;;;;;1.88;0.90;;;18.80;56.70;;;;;;5034526;28;20931;-68
2023/11/30 06:54:51;;;;;;;2.72;1.10;;;18.80;56.60;;;;;;5038707;28;20029;-68
2023/11/30 06:57:17;;;;;;;1.85;0.88;;;18.80;56.60;;;;;;5036446;28;20044;-69
2023/11/30 06:59:43;;;;;;;1.88;1.05;;;18.90;56.70;;;;;;5037256;28;20384;-68
2023/11/30 07:02:09;;;;;;;1.92;1.05;;;18.80;56.70;;;;;;5037586;28;20054;-69
2023/11/30 07:04:35;;;;;;;2.70;1.00;;;18.80;56.70;;;;;;5026744;28;20125;-68
2023/11/30 07:07:01;;;;;;;1.98;1.02;;;18.80;56.70;;;;;;5035181;28;20084;-69
2023/11/30 07:09:27;;;;;;;1.95;0.98;;;18.80;56.70;;;;;;5034360;28;20077;-68
2023/11/30 07:11:53;;;;;;;2.55;1.10;;;18.80;57.20;;;;;;5033929;28;20108;-69
2023/11/30 07:14:18;;;;;;;3.25;1.23;;;18.80;56.70;;;;;;5036197;28;20026;-69
2023/11/30 07:16:44;;;;;;;3.15;1.10;;;18.80;56.70;;;;;;5035295;28;20446;-69
2023/11/30 07:19:09;;;;;;;2.28;1.00;;;18.80;56.70;;;;;;5034660;28;20029;-68
2023/11/30 07:21:35;;;;;;;2.88;1.10;;;18.80;56.70;;;;;;5034469;28;20113;-71
2023/11/30 07:24:01;;;;;;;2.45;1.02;;;18.80;56.70;;;;;;5035913;28;20044;-72
2023/11/30 07:26:27;;;;;;;2.45;1.00;;;18.80;56.70;;;;;;5018832;28;20037;-71
2023/11/30 07:28:52;;;;;;;2.22;1.20;;;18.80;56.70;;;;;;5030880;27;20036;-72
2023/11/30 07:31:19;;;;;;;1.98;1.10;;;18.80;56.70;;;;;;5037224;28;20408;-66
2023/11/30 07:33:46;;;;;;;2.40;1.17;;;18.80;56.70;;;;;;5036907;28;20506;-64
2023/11/30 07:36:12;;;;;;;4.30;1.15;;;18.80;56.70;;;;;;5036666;28;20021;-64
2023/11/30 07:38:37;;;;;;;2.72;1.13;;;18.80;56.70;;;;;;5033193;28;20366;-63
2023/11/30 07:41:04;;;;;;;3.10;1.20;;;18.80;56.70;;;;;;5020118;28;20088;-63
2023/11/30 07:43:31;;;;;;;2.13;1.15;;;18.80;56.70;;;;;;5036467;28;20162;-63
2023/11/30 07:45:57;;;;;;;3.63;1.63;;;18.80;56.70;;;;;;5034597;28;20539;-63
2023/11/30 07:48:23;;;;;;;3.65;1.40;;;18.80;56.70;;;;;;5034688;28;20044;-63
2023/11/30 07:50:50;;;;;;;2.13;1.10;;;18.80;56.70;;;;;;5037039;28;20385;-65
2023/11/30 07:53:17;;;;;;;2.88;1.17;;;18.80;56.70;;;;;;5036621;28;20025;-64
2023/11/30 07:55:43;;;;;;;3.13;1.35;;;18.80;56.70;;;;;;5034643;28;20017;-64
2023/11/30 07:58:09;;;;;;;2.35;1.15;;;18.80;56.70;;;;;;5035533;28;20036;-64
2023/11/30 08:00:35;;;;;;;3.33;1.40;;;18.80;56.70;;;;;;5038125;28;20021;-64
2023/11/30 08:03:01;;;;;;;3.40;1.48;;;18.80;57.20;;;;;;5036862;28;20477;-64
2023/11/30 08:05:27;;;;;;;3.05;1.40;;;18.80;56.70;;;;;;5019093;28;20059;-64
2023/11/30 08:07:53;;;;;;;3.67;1.30;;;18.80;56.70;;;;;;5036549;28;20036;-63
2023/11/30 08:10:19;;;;;;;2.58;1.20;;;18.80;56.70;;;;;;5025874;28;20032;-64
2023/11/30 08:12:45;;;;;;;2.92;1.30;;;18.80;56.70;;;;;;5035157;28;20053;-63
2023/11/30 08:15:14;;;;;;;3.10;1.23;;;18.80;56.70;;;;;;5037353;28;20074;-64
2023/11/30 08:17:40;;;;;;;3.17;1.45;;;18.80;56.70;;;;;;5033675;28;20026;-63
2023/11/30 08:20:10;;;;;;;2.80;1.27;;;18.80;56.70;;;;;;5017060;28;20154;-63
2023/11/30 08:22:37;;;;;;;2.53;1.38;;;18.80;56.70;;;;;;5036580;28;20476;-63
2023/11/30 08:25:03;;;;;;;2.50;1.40;;;18.80;56.70;;;;;;5017696;28;20029;-63
2023/11/30 08:27:29;;;;;;;2.60;1.30;;;18.80;56.70;;;;;;5033871;28;20541;-63
2023/11/30 08:29:54;;;;;;;2.65;1.50;;;18.80;56.70;;;;;;5037371;28;20074;-66
2023/11/30 08:32:20;;;;;;;2.70;1.58;;;18.80;56.70;;;;;;5038722;28;20037;-65
2023/11/30 08:34:46;;;;;;;3.35;1.67;;;18.80;56.70;;;;;;5035455;28;20037;-66
2023/11/30 08:37:11;;;;;;;2.75;1.40;;;18.80;56.70;;;;;;5035436;28;20030;-65
2023/11/30 08:39:37;;;;;;;3.85;1.60;;;18.70;56.60;;;;;;5036314;28;20029;-65
2023/11/30 08:42:03;;;;;;;3.28;1.60;;;18.80;56.70;;;;;;5035276;28;20494;-63
2023/11/30 08:44:29;;;;;;;2.90;1.60;;;18.80;56.70;;;;;;5038017;28;20460;-64
2023/11/30 08:46:55;;;;;;;3.75;1.40;;;18.70;56.60;;;;;;5036421;28;20049;-63
2023/11/30 08:49:21;;;;;;;3.97;1.50;;;18.80;56.70;;;;;;5020384;28;20497;-64
2023/11/30 08:51:46;;;;;;;3.92;1.40;;;18.80;56.70;;;;;;5035155;28;20163;-64
2023/11/30 08:54:12;;;;;;;4.68;1.67;;;18.80;56.70;;;;;;5033100;28;20101;-64
2023/11/30 08:56:37;;;;;;;3.25;1.65;;;18.80;56.70;;;;;;5038681;28;20330;-64
2023/11/30 08:59:03;;;;;;;2.60;1.40;;;18.80;57.20;;;;;;5020900;28;20045;-64
2023/11/30 09:01:29;;;;;;;3.35;1.58;;;18.70;56.60;;;;;;5038137;28;20049;-63
2023/11/30 09:04:00;;;;;;;3.22;1.50;;;18.70;56.60;;;;;;5037846;28;20068;-63
2023/11/30 09:06:26;;;;;;;3.00;1.70;;;18.80;56.70;;;;;;5036713;28;20025;-63
2023/11/30 09:08:51;;;;;;;4.03;1.60;;;18.80;56.70;;;;;;5039950;28;20615;-64
2023/11/30 09:11:17;;;;;;;2.53;1.40;;;18.70;56.60;;;;;;5038185;28;20079;-64
2023/11/30 09:13:42;;;;;;;3.08;1.40;;;18.70;56.60;;;;;;5040014;28;20074;-64
2023/11/30 09:16:10;;;;;;;2.20;1.40;;;18.80;56.70;;;;;;5039373;28;20168;-64
2023/11/30 09:18:35;;;;;;;2.38;1.40;;;18.70;56.60;;;;;;5037195;28;20029;-63
2023/11/30 09:21:01;;;;;;;2.70;1.48;;;18.70;56.60;;;;;;5037099;28;20037;-65
2023/11/30 09:23:29;;;;;;;3.50;1.98;;;18.70;56.60;;;;;;5036074;28;20029;-65
2023/11/30 09:25:55;;;;;;;2.20;1.30;;;18.80;56.70;;;;;;5038501;28;20053;-63
2023/11/30 09:28:21;;;;;;;2.83;1.38;;;18.70;56.60;;;;;;5038326;28;20060;-63
2023/11/30 09:30:46;;;;;;;2.55;1.45;;;18.70;56.60;;;;;;5038170;28;20342;-63
2023/11/30 09:33:13;;;;;;;2.75;1.50;;;18.70;56.60;;;;;;5040397;28;20064;-64
2023/11/30 09:35:39;;;;;;;2.90;1.45;;;18.70;56.60;;;;;;5039250;28;20017;-64
2023/11/30 09:38:04;;;;;;;2.60;1.40;;;18.70;56.60;;;;;;5021049;28;20094;-64
2023/11/30 09:40:30;;;;;;;3.78;1.75;;;18.70;56.60;;;;;;5019026;28;20026;-63
2023/11/30 09:42:56;;;;;;;2.78;1.40;;;18.70;56.60;;;;;;5035314;28;20030;-69
2023/11/30 09:45:23;;;;;;;2.33;1.30;;;18.70;56.60;;;;;;5038982;28;20029;-69
2023/11/30 09:47:49;;;;;;;2.78;1.40;;;18.70;56.60;;;;;;5040211;28;20080;-68
2023/11/30 09:50:15;;;;;;;2.92;1.50;;;18.70;56.60;;;;;;5036637;28;20466;-69
2023/11/30 09:52:42;;;;;;;2.28;1.38;;;18.70;56.60;;;;;;5021252;28;20044;-65
2023/11/30 09:55:11;;;;;;;2.17;1.23;;;18.70;56.60;;;;;;5035958;28;20037;-65
2023/11/30 09:57:37;;;;;;;2.42;1.20;;;18.70;56.60;;;;;;5037849;28;20061;-65
2023/11/30 10:00:06;;;;;;;2.67;1.48;;;18.70;56.60;;;;;;5018960;28;20047;-67
2023/11/30 10:02:32;;;;;;;3.47;1.67;;;18.70;56.60;;;;;;5039761;28;20032;-65
2023/11/30 10:04:57;;;;;;;2.60;1.45;;;18.70;56.60;;;;;;5037841;28;20091;-66
2023/11/30 10:07:23;;;;;;;2.63;1.50;;;18.70;56.60;;;;;;5036942;28;20017;-65
2023/11/30 10:09:49;;;;;;;2.67;1.50;;;18.70;56.60;;;;;;5027092;28;20036;-65
2023/11/30 10:12:19;;;;;;;2.72;1.40;;;18.70;56.60;;;;;;5039724;28;20028;-66
2023/11/30 10:14:45;;;;;;;3.20;1.50;;;18.70;56.60;;;;;;5036089;28;20040;-65
2023/11/30 10:17:11;;;;;;;2.65;1.60;;;18.70;57.10;;;;;;5023055;28;20138;-65
2023/11/30 10:19:38;;;;;;;2.60;1.38;;;18.70;56.60;;;;;;5039846;28;20766;-65
2023/11/30 10:22:03;;;;;;;3.17;1.60;;;18.70;56.60;;;;;;5038034;28;20021;-74
2023/11/30 10:24:29;;;;;;;2.92;1.45;;;18.70;56.60;;;;;;5037994;28;20041;-73
2023/11/30 10:27:01;;;;;;;2.42;1.25;;;18.70;56.60;;;;;;5035012;28;20429;-74
2023/11/30 10:29:27;;;;;;;2.70;1.50;;;18.70;57.10;;;;;;5039529;28;20035;-74
2023/11/30 10:31:55;;;;;;;2.70;1.25;;;18.60;56.50;;;;;;5037998;28;20033;-74
2023/11/30 10:34:28;;;;;;;2.03;1.27;;;18.70;56.60;;;;;;5036342;28;20173;-73
2023/11/30 10:36:56;;;;;;;2.83;1.40;;;18.70;56.60;;;;;;5037450;28;20472;-73
2023/11/30 10:39:23;;;;;;;2.55;1.42;;;18.60;56.50;;;;;;5020899;28;20438;-74
2023/11/30 10:41:53;;;;;;;2.97;1.42;;;18.70;56.60;;;;;;5039177;28;20387;-75
2023/11/30 10:44:27;;;;;;;3.22;1.63;;;18.70;56.60;;;;;;5016934;28;20029;-75
2023/11/30 10:46:54;;;;;;;2.70;1.52;;;18.60;57.00;;;;;;5037494;28;20556;-74
2023/11/30 10:49:22;;;;;;;2.30;1.30;;;18.70;57.10;;;;;;5036446;28;20051;-75
2023/11/30 10:51:51;;;;;;;2.42;1.35;;;18.70;56.60;;;;;;5039263;28;20061;-74
2023/11/30 10:54:46;;;;;;;2.83;1.40;;;18.70;56.60;;;;;;5038970;28;20166;-75
2023/11/30 10:57:13;;;;;;;2.83;1.63;;;18.70;56.60;;;;;;5036005;28;20096;-75
2023/11/30 10:59:43;;;;;;;2.55;1.50;;;18.60;56.50;;;;;;5033890;28;20508;-75
2023/11/30 11:02:11;;;;;;;2.72;1.40;;;18.70;56.50;;;;;;5039604;28;20040;-73
2023/11/30 11:04:40;;;;;;;3.03;1.48;;;18.60;56.50;;;;;;5035995;28;20047;-76
2023/11/30 11:07:14;;;;;;;2.15;1.20;;;18.70;56.60;;;;;;5027239;28;20033;-75
2023/11/30 11:09:50;;;;;;;2.55;1.40;;;18.70;56.60;;;;;;5037075;28;20488;-75
2023/11/30 11:12:24;;;;;;;2.25;1.40;;;18.60;56.50;;;;;;5035153;28;20074;-74
2023/11/30 11:15:04;;;;;;;2.58;1.55;;;18.70;56.60;;;;;;5035097;28;20029;-74
2023/11/30 11:17:30;;;;;;;2.85;1.50;;;18.70;56.60;;;;;;5037011;28;20454;-76
2023/11/30 11:20:00;;;;;;;2.38;1.30;;;18.60;56.50;;;;;;5035027;28;20025;-75
2023/11/30 11:22:30;;;;;;;2.30;1.30;;;18.70;56.60;;;;;;5034874;28;20036;-76
2023/11/30 11:24:57;;;;;;;2.88;1.50;;;18.60;56.50;;;;;;5036095;28;20049;-75
2023/11/30 11:27:28;;;;;;;2.90;1.50;;;18.60;56.50;;;;;;5034704;28;20036;-75
2023/11/30 11:29:57;;;;;;;2.42;1.30;;;18.60;56.50;;;;;;5034522;28;20032;-75
2023/11/30 11:32:23;;;;;;;2.58;1.40;;;18.60;56.50;;;;;;5037639;28;20073;-75
2023/11/30 11:34:49;;;;;;;2.72;1.60;;;18.60;56.50;;;;;;5038260;28;20037;-75
2023/11/30 11:37:15;;;;;;;2.60;1.40;;;18.70;56.60;;;;;;5036128;28;20040;-76
2023/11/30 11:39:41;;;;;;;2.88;1.60;;;18.60;56.50;;;;;;5035431;28;20029;-76
2023/11/30 11:42:10;;;;;;;2.38;1.30;;;18.60;56.50;;;;;;5033510;28;20054;-76
2023/11/30 11:44:35;;;;;;;2.00;1.15;;;18.60;56.50;;;;;;5036537;28;20381;-75
2023/11/30 11:47:01;;;;;;;2.75;1.60;;;18.60;56.50;;;;;;5035358;28;20041;-76
2023/11/30 11:49:27;;;;;;;3.00;1.30;;;18.60;56.50;;;;;;5036964;28;20041;-74
2023/11/30 11:51:54;;;;;;;3.17;1.42;;;18.60;56.50;;;;;;5018914;28;20501;-76
2023/11/30 11:54:21;;;;;;;2.22;1.27;;;18.60;56.60;;;;;;5036675;28;20025;-76
2023/11/30 11:56:52;;;;;;;2.70;1.40;;;18.60;56.50;;;;;;5036388;28;20025;-76
2023/11/30 11:59:26;;;;;;;2.40;1.40;;;18.60;56.50;;;;;;5034180;28;20233;-76
2023/11/30 12:01:53;;;;;;;2.30;1.20;;;18.60;56.50;;;;;;5026442;28;20502;-65
2023/11/30 12:04:45;;;;;;;2.90;1.30;;;18.60;56.50;;;;;;5019760;28;20514;-64
2023/11/30 12:07:16;;;;;;;2.22;1.30;;;18.60;56.60;;;;;;5036389;28;20511;-64
2023/11/30 12:09:52;;;;;;;2.72;1.40;;;18.60;56.60;;;;;;5035439;28;20033;-63
2023/11/30 12:12:18;;;;;;;2.53;1.30;;;18.60;56.50;;;;;;5035914;28;20469;-76
2023/11/30 12:14:43;;;;;;;2.42;1.30;;;18.60;56.50;;;;;;5038176;28;20036;-75
2023/11/30 12:17:09;;;;;;;2.40;1.40;;;18.60;56.50;;;;;;5034012;28;20528;-73
2023/11/30 12:19:35;;;;;;;2.65;1.30;;;18.60;56.50;;;;;;5035705;28;20021;-76
2023/11/30 12:22:01;;;;;;;2.85;1.30;;;18.60;56.50;;;;;;5019715;28;20017;-74
2023/11/30 12:24:26;;;;;;;2.20;1.40;;;18.60;56.50;;;;;;5036676;28;20025;-75
2023/11/30 12:26:52;;;;;;;4.10;1.40;;;18.60;56.50;;;;;;5033967;28;20065;-75
2023/11/30 12:29:17;;;;;;;2.53;1.40;;;18.60;56.60;;;;;;5035034;28;20033;-75
2023/11/30 12:31:43;;;;;;;2.58;1.40;;;18.60;56.60;;;;;;5037806;28;20511;-75
2023/11/30 12:34:09;;;;;;;1.98;1.20;;;18.60;56.60;;;;;;5037430;28;20468;-76
2023/11/30 12:36:34;;;;;;;2.78;1.50;;;18.60;57.10;;;;;;5035734;28;20021;-75
2023/11/30 12:39:00;;;;;;;2.25;1.30;;;18.60;56.60;;;;;;5035179;28;20032;-75
2023/11/30 12:41:25;;;;;;;2.63;1.60;;;18.60;56.60;;;;;;5032838;28;20018;-76
2023/11/30 12:43:51;;;;;;;3.63;1.58;;;18.60;56.60;;;;;;5034832;28;20025;-75